KHWY

Warrenton-Fauquier Airport

Warrenton, Virginia, USA
METAR KHWY 210515Z AUTO 10006KT 10SM OVC009 24/21 A3007 RMK AO2 T02350207
Observed Flight Rules
Aug-21 @ 05:15 UTC (9 hours ago) Instrument Flight Rules
Wind Visibility Clouds
100° at 6 knots 10 miles
  • Overcast at 900' AGL
Temperatures Readings
Current 24°C / 75°F
Dewpoint 21°C / 70°F
Humidity 83%
Altimeter 30.07" Hg
Pressure 1018 hPa
Elevation 103
METAR KHWY 210515Z AUTO 10006KT 10SM OVC009 24/21 A3007 RMK AO2 T02350207
Observed Flight Rules
Aug-21 @ 05:15 UTC
(9 hours ago)
IFR
Wind Visibility
100° at 6 knots 10 miles
Clouds
  • Overcast at 900' AGL
Temperature Dewpoint
24°C / 75°F 21°C / 70°F
Humidity Altimeter Pressure
83% 30.07" Hg 1018 hPa